createdAt,value
2019-02-14T00:00:38.536Z,0
2019-02-14T00:03:31.018Z,0
2019-02-14T00:06:30.678Z,0
2019-02-14T00:09:31.578Z,0
2019-02-14T00:12:31.202Z,0
2019-02-14T00:15:31.034Z,0
2019-02-14T00:18:30.993Z,0
2019-02-14T00:21:30.507Z,0
2019-02-14T00:24:31.773Z,0
2019-02-14T00:27:31.240Z,0
2019-02-14T00:30:30.539Z,0
2019-02-14T00:33:31.096Z,0
2019-02-14T00:36:30.553Z,0
2019-02-14T00:39:30.940Z,0
2019-02-14T00:42:30.729Z,0
2019-02-14T00:45:31.241Z,0
2019-02-14T00:48:30.638Z,0
2019-02-14T00:51:31.499Z,0
2019-02-14T00:54:30.894Z,0
2019-02-14T00:57:30.236Z,0
2019-02-14T01:00:30.876Z,0
2019-02-14T01:03:30.309Z,0
2019-02-14T01:06:35.803Z,0
2019-02-14T01:09:30.211Z,0
2019-02-14T01:12:30.629Z,0
2019-02-14T01:15:31.585Z,0
2019-02-14T01:18:31.015Z,0
2019-02-14T01:21:30.620Z,0
2019-02-14T01:24:31.082Z,0
2019-02-14T01:27:30.438Z,0
2019-02-14T01:30:30.826Z,0
2019-02-14T01:33:30.154Z,0
2019-02-14T01:36:30.395Z,0
2019-02-14T01:39:30.791Z,0
2019-02-14T01:42:30.171Z,0
2019-02-14T01:45:30.571Z,0
2019-02-14T01:48:30.979Z,0
2019-02-14T01:51:30.455Z,0
2019-02-14T01:54:31.181Z,0
2019-02-14T01:57:30.735Z,0
2019-02-14T02:00:31.276Z,0
2019-02-14T02:03:32.319Z,0
2019-02-14T02:06:30.802Z,0
2019-02-14T02:09:30.166Z,0
2019-02-14T02:12:30.731Z,0
2019-02-14T02:15:31.204Z,0
2019-02-14T02:18:31.315Z,0
2019-02-14T02:21:30.730Z,0
2019-02-14T02:24:31.309Z,0
2019-02-14T02:27:30.838Z,0
2019-02-14T02:30:30.520Z,0
2019-02-14T02:33:30.871Z,0
2019-02-14T02:36:30.391Z,0
2019-02-14T02:39:30.897Z,0
2019-02-14T02:42:30.907Z,0
2019-02-14T02:45:30.680Z,0
2019-02-14T02:48:30.962Z,0
2019-02-14T02:51:30.456Z,0
2019-02-14T02:54:30.899Z,0
2019-02-14T02:57:30.442Z,0
2019-02-14T03:00:35.990Z,0
2019-02-14T03:03:30.459Z,0
2019-02-14T03:06:31.008Z,0
2019-02-14T03:09:30.523Z,0
2019-02-14T03:12:31.138Z,0
2019-02-14T03:15:30.788Z,0
2019-02-14T03:18:30.566Z,0
2019-02-14T03:21:31.114Z,0
2019-02-14T03:24:30.573Z,0
2019-02-14T03:27:31.013Z,0
2019-02-14T03:30:30.499Z,0
2019-02-14T03:33:31.032Z,0
2019-02-14T03:36:34.992Z,0
2019-02-14T03:39:30.636Z,0
2019-02-14T03:42:32.883Z,0
2019-02-14T03:45:30.384Z,0
2019-02-14T03:48:30.846Z,0
2019-02-14T03:51:30.405Z,0
2019-02-14T03:54:31.189Z,0
2019-02-14T03:57:30.672Z,0
2019-02-14T04:00:31.633Z,0
2019-02-14T04:03:31.119Z,0
2019-02-14T04:06:30.910Z,0
2019-02-14T04:09:30.717Z,0
2019-02-14T04:12:36.444Z,0
2019-02-14T04:15:31.551Z,0
2019-02-14T04:18:31.119Z,0
2019-02-14T04:21:30.620Z,0
2019-02-14T04:24:31.085Z,0
2019-02-14T04:27:31.003Z,0
2019-02-14T04:30:30.806Z,0
2019-02-14T04:33:30.800Z,0
2019-02-14T04:36:38.437Z,0
2019-02-14T04:39:30.942Z,0
2019-02-14T04:42:30.735Z,0
2019-02-14T04:45:31.222Z,0
2019-02-14T04:48:30.648Z,0
2019-02-14T04:51:31.130Z,0
2019-02-14T04:54:30.557Z,0
2019-02-14T04:57:30.910Z,0
2019-02-14T05:00:30.395Z,0
2019-02-14T05:03:30.942Z,0
2019-02-14T05:06:31.009Z,0
2019-02-14T05:09:30.399Z,0
2019-02-14T05:12:30.788Z,0
2019-02-14T05:15:31.382Z,0
2019-02-14T05:18:31.306Z,0
2019-02-14T05:21:30.661Z,0
2019-02-14T05:24:31.312Z,0
2019-02-14T05:27:31.358Z,0
2019-02-14T05:30:31.001Z,0
2019-02-14T05:33:30.772Z,0
2019-02-14T05:36:31.201Z,0
2019-02-14T05:39:30.665Z,0
2019-02-14T05:42:31.638Z,0
2019-02-14T05:45:31.618Z,0
2019-02-14T05:48:31.080Z,0
2019-02-14T05:51:35.776Z,0
2019-02-14T05:54:31.228Z,0
2019-02-14T05:57:30.914Z,0
2019-02-14T06:00:36.191Z,0
2019-02-14T06:03:31.318Z,0
2019-02-14T06:06:31.056Z,1
2019-02-14T06:09:30.633Z,1
2019-02-14T06:12:31.303Z,2
2019-02-14T06:15:30.684Z,3
2019-02-14T06:18:31.180Z,7
2019-02-14T06:21:30.695Z,12
2019-02-14T06:24:31.391Z,20
2019-02-14T06:27:31.253Z,33
2019-02-14T06:30:30.927Z,53
2019-02-14T06:33:30.616Z,80
2019-02-14T06:36:31.206Z,114
2019-02-14T06:39:31.160Z,158
2019-02-14T06:42:30.742Z,214
2019-02-14T06:45:31.241Z,278
2019-02-14T06:48:30.672Z,350
2019-02-14T06:51:31.406Z,432
2019-02-14T06:54:31.148Z,528
2019-02-14T06:57:35.874Z,598
2019-02-14T07:00:30.623Z,695
2019-02-14T07:03:31.227Z,793
2019-02-14T07:06:30.952Z,1027
2019-02-14T07:09:30.594Z,975
2019-02-14T07:12:31.079Z,1091
2019-02-14T07:15:30.886Z,1552
2019-02-14T07:18:30.848Z,1403
2019-02-14T07:21:30.617Z,2014
2019-02-14T07:24:31.100Z,1682
2019-02-14T07:27:30.834Z,2101
2019-02-14T07:30:30.740Z,2509
2019-02-14T07:33:31.195Z,1935
2019-02-14T07:36:30.976Z,2295
2019-02-14T07:39:30.814Z,1954
2019-02-14T07:42:30.618Z,2122
2019-02-14T07:45:31.179Z,1994
2019-02-14T07:48:30.808Z,2279
2019-02-14T07:51:30.635Z,2458
2019-02-14T07:54:31.516Z,3172
2019-02-14T07:57:31.363Z,3193
2019-02-14T08:00:31.223Z,3488
2019-02-14T08:03:30.782Z,3464
2019-02-14T08:06:31.578Z,5852
2019-02-14T08:09:30.981Z,8788
2019-02-14T08:12:30.616Z,4963
2019-02-14T08:15:31.212Z,4267
2019-02-14T08:18:30.762Z,5369
2019-02-14T08:21:31.600Z,6877
2019-02-14T08:24:31.061Z,9178
2019-02-14T08:27:30.756Z,12772
2019-02-14T08:30:31.738Z,11817
2019-02-14T08:33:31.424Z,10959
2019-02-14T08:36:30.942Z,20529
2019-02-14T08:39:30.580Z,26912
2019-02-14T08:42:31.305Z,29113
2019-02-14T08:45:32.564Z,11695
2019-02-14T08:48:31.066Z,30450
2019-02-14T08:51:32.512Z,40856
2019-02-14T08:54:31.600Z,38978
2019-02-14T08:57:31.297Z,54612
2019-02-14T09:00:31.016Z,54612
2019-02-14T09:03:30.453Z,54612
2019-02-14T09:06:31.108Z,42319
2019-02-14T09:09:30.802Z,36190
2019-02-14T09:12:30.389Z,33180
2019-02-14T09:15:30.823Z,31340
2019-02-14T09:18:30.529Z,33152
2019-02-14T09:21:31.062Z,29285
2019-02-14T09:24:30.494Z,25832
2019-02-14T09:27:33.132Z,26334
2019-02-14T09:30:31.323Z,38734
2019-02-14T09:33:31.057Z,41332
2019-02-14T09:36:30.814Z,40038
2019-02-14T09:39:30.514Z,46902
2019-02-14T09:42:31.680Z,54612
2019-02-14T09:45:31.736Z,45773
2019-02-14T09:48:31.400Z,40108
2019-02-14T09:51:31.154Z,40818
2019-02-14T09:54:30.988Z,25919
2019-02-14T09:57:30.765Z,51637
2019-02-14T10:00:31.439Z,31474
2019-02-14T10:03:31.246Z,41791
2019-02-14T10:06:39.416Z,41829
2019-02-14T10:09:31.133Z,45684
2019-02-14T10:12:30.717Z,38348
2019-02-14T10:15:31.226Z,45162
2019-02-14T10:18:31.127Z,41081
2019-02-14T10:21:31.008Z,31463
2019-02-14T10:24:31.191Z,28062
2019-02-14T10:27:31.124Z,39198
2019-02-14T10:30:30.681Z,35476
2019-02-14T10:33:37.819Z,37862
2019-02-14T10:36:30.591Z,32905
2019-02-14T10:39:31.369Z,40504
2019-02-14T10:42:31.277Z,28312
2019-02-14T10:45:31.312Z,34872
2019-02-14T10:48:30.852Z,16592
2019-02-14T10:51:30.912Z,16431
2019-02-14T10:54:30.697Z,16568
2019-02-14T10:57:31.283Z,17555
2019-02-14T11:00:33.186Z,16719
2019-02-14T11:03:30.901Z,19131
2019-02-14T11:06:30.540Z,18007
2019-02-14T11:09:31.086Z,18030
2019-02-14T11:12:30.686Z,19639
2019-02-14T11:15:31.421Z,53484
2019-02-14T11:18:31.104Z,37594
2019-02-14T11:21:30.676Z,46135
2019-02-14T11:24:31.362Z,54612
2019-02-14T11:27:31.135Z,54612
2019-02-14T11:30:31.296Z,52733
2019-02-14T11:33:30.941Z,54612
2019-02-14T11:36:30.630Z,54612
2019-02-14T11:39:31.543Z,48686
2019-02-14T11:42:32.542Z,52778
2019-02-14T11:45:32.654Z,41152
2019-02-14T11:48:31.324Z,11418
2019-02-14T11:51:31.283Z,11772
2019-02-14T11:54:31.174Z,11751
2019-02-14T11:57:31.046Z,11816
2019-02-14T12:00:31.715Z,11849
2019-02-14T12:03:31.478Z,12197
2019-02-14T12:06:33.483Z,13022
2019-02-14T12:09:30.981Z,11945
2019-02-14T12:12:30.658Z,10247
2019-02-14T12:15:31.168Z,11162
2019-02-14T12:18:30.997Z,12632
2019-02-14T12:21:30.540Z,13525
2019-02-14T12:24:31.269Z,13808
2019-02-14T12:27:30.916Z,14143
2019-02-14T12:30:30.655Z,14039
2019-02-14T12:33:31.139Z,10413
2019-02-14T12:36:30.681Z,13242
2019-02-14T12:39:31.344Z,11407
2019-02-14T12:42:31.202Z,10486
2019-02-14T12:45:38.404Z,11418
2019-02-14T12:48:31.010Z,12838
2019-02-14T12:51:30.607Z,9367
2019-02-14T12:54:31.089Z,8237
2019-02-14T12:57:30.741Z,10540
2019-02-14T13:00:31.234Z,11552
2019-02-14T13:03:31.110Z,11127
2019-02-14T13:06:30.639Z,8809
2019-02-14T13:09:35.848Z,9715
2019-02-14T13:12:30.469Z,11852
2019-02-14T13:15:31.157Z,10961
2019-02-14T13:18:31.155Z,12986
2019-02-14T13:21:30.845Z,12162
2019-02-14T13:24:30.495Z,9036
2019-02-14T13:27:31.235Z,8832
2019-02-14T13:30:31.478Z,7938
2019-02-14T13:33:31.091Z,7681
2019-02-14T13:36:30.769Z,8529
2019-02-14T13:39:33.279Z,7175
2019-02-14T13:42:31.109Z,8448
2019-02-14T13:45:31.409Z,7928
2019-02-14T13:48:31.128Z,6638
2019-02-14T13:51:30.910Z,4572
2019-02-14T13:54:30.819Z,4986
2019-02-14T13:57:30.459Z,4058
2019-02-14T14:00:31.768Z,4516
2019-02-14T14:03:31.589Z,3718
2019-02-14T14:06:31.370Z,3422
2019-02-14T14:09:38.587Z,2501
2019-02-14T14:12:30.972Z,2740
2019-02-14T14:15:30.515Z,3408
2019-02-14T14:18:31.312Z,3476
2019-02-14T14:21:31.006Z,4024
2019-02-14T14:24:30.599Z,4265
2019-02-14T14:27:31.498Z,4437
2019-02-14T14:30:31.108Z,4870
2019-02-14T14:33:30.713Z,4613
2019-02-14T14:36:31.576Z,3680
2019-02-14T14:39:31.341Z,4275
2019-02-14T14:43:43.572Z,4373
2019-02-14T14:45:47.292Z,4412
2019-02-14T14:48:41.214Z,4440
2019-02-14T14:51:30.818Z,4409
2019-02-14T14:54:30.388Z,4257
2019-02-14T14:57:30.836Z,4132
2019-02-14T15:00:30.614Z,4025
2019-02-14T15:03:31.400Z,3946
2019-02-14T15:06:31.130Z,3729
2019-02-14T15:09:30.888Z,3560
2019-02-14T15:12:30.664Z,3376
2019-02-14T15:15:31.386Z,3282
2019-02-14T15:18:31.315Z,3101
2019-02-14T15:21:31.106Z,2964
2019-02-14T15:24:30.756Z,2765
2019-02-14T15:27:31.371Z,2612
2019-02-14T15:30:31.163Z,2505
2019-02-14T15:33:30.656Z,2403
2019-02-14T15:36:31.204Z,2301
2019-02-14T15:39:30.758Z,2185
2019-02-14T15:42:31.459Z,1995
2019-02-14T15:45:31.270Z,1918
2019-02-14T15:48:31.012Z,1867
2019-02-14T15:51:33.163Z,1779
2019-02-14T15:54:35.259Z,1656
2019-02-14T15:57:33.661Z,1500
2019-02-14T16:00:35.195Z,1340
2019-02-14T16:03:34.742Z,1192
2019-02-14T16:06:32.635Z,1057
2019-02-14T16:09:32.185Z,891
2019-02-14T16:12:33.085Z,829
2019-02-14T16:15:33.727Z,892
2019-02-14T16:18:30.552Z,805
2019-02-14T16:21:33.375Z,683
2019-02-14T16:24:34.031Z,582
2019-02-14T16:27:30.642Z,541
2019-02-14T16:30:35.243Z,462
2019-02-14T16:33:30.943Z,377
2019-02-14T16:36:32.505Z,319
2019-02-14T16:39:31.218Z,262
2019-02-14T16:42:30.863Z,214
2019-02-14T16:45:30.531Z,168
2019-02-14T16:48:32.001Z,123
2019-02-14T16:51:30.674Z,88
2019-02-14T16:54:31.379Z,60
2019-02-14T16:57:31.047Z,40
2019-02-14T17:00:30.671Z,26
2019-02-14T17:03:31.507Z,16
2019-02-14T17:06:31.257Z,9
2019-02-14T17:09:30.809Z,5
2019-02-14T17:12:30.410Z,2
2019-02-14T17:15:31.074Z,2
2019-02-14T17:18:30.775Z,1
2019-02-14T17:21:35.657Z,0
2019-02-14T17:24:31.228Z,0
2019-02-14T17:27:30.942Z,0
2019-02-14T17:30:30.661Z,0
2019-02-14T17:33:31.290Z,0
2019-02-14T17:36:30.776Z,0
2019-02-14T17:39:31.383Z,0
2019-02-14T17:42:31.005Z,0
2019-02-14T17:45:30.585Z,0
2019-02-14T17:48:31.249Z,0
2019-02-14T17:51:30.834Z,0
2019-02-14T17:54:30.705Z,0
2019-02-14T17:57:31.240Z,0
2019-02-14T18:00:31.121Z,0
2019-02-14T18:03:30.585Z,0
2019-02-14T18:06:31.256Z,0
2019-02-14T18:09:30.880Z,0
2019-02-14T18:12:30.491Z,0
2019-02-14T18:15:31.119Z,0
2019-02-14T18:18:30.808Z,0
2019-02-14T18:21:30.355Z,0
2019-02-14T18:24:30.928Z,0
2019-02-14T18:27:30.502Z,0
2019-02-14T18:30:31.118Z,0
2019-02-14T18:33:30.731Z,0
2019-02-14T18:36:31.513Z,0
2019-02-14T18:39:30.910Z,0
2019-02-14T18:42:32.828Z,0
2019-02-14T18:45:30.649Z,0
2019-02-14T18:48:31.170Z,0
2019-02-14T18:51:31.004Z,0
2019-02-14T18:54:30.739Z,0
2019-02-14T18:57:31.335Z,0
2019-02-14T19:00:31.096Z,0
2019-02-14T19:03:30.647Z,0
2019-02-14T19:06:31.479Z,0
2019-02-14T19:09:30.945Z,0
2019-02-14T19:12:30.659Z,0
2019-02-14T19:15:31.722Z,0
2019-02-14T19:18:30.425Z,0
2019-02-14T19:21:31.311Z,0
2019-02-14T19:24:31.117Z,0
2019-02-14T19:27:30.585Z,0
2019-02-14T19:30:31.332Z,0
2019-02-14T19:33:31.013Z,0
2019-02-14T19:36:30.647Z,0
2019-02-14T19:39:31.179Z,0
2019-02-14T19:42:30.810Z,0
2019-02-14T19:45:39.295Z,0
2019-02-14T19:48:30.982Z,0
2019-02-14T19:51:30.622Z,0
2019-02-14T19:54:31.221Z,0
2019-02-14T19:57:31.046Z,0
2019-02-14T20:00:30.554Z,0
2019-02-14T20:03:31.972Z,0
2019-02-14T20:13:36.552Z,0
2019-02-14T20:16:12.346Z,0
2019-02-14T20:19:23.633Z,0
2019-02-14T20:23:42.038Z,0
2019-02-14T20:25:11.128Z,0
2019-02-14T20:28:55.609Z,0
2019-02-14T20:30:59.152Z,0
2019-02-14T20:33:36.350Z,0
2019-02-14T20:36:33.687Z,0
2019-02-14T20:39:34.121Z,0
2019-02-14T20:42:32.817Z,0
2019-02-14T20:45:31.996Z,0
2019-02-14T20:48:33.102Z,0
2019-02-14T20:51:41.839Z,0
2019-02-14T20:54:36.304Z,0
2019-02-14T20:57:35.546Z,0
2019-02-14T21:00:43.147Z,0
2019-02-14T21:03:54.163Z,0
2019-02-14T21:06:39.884Z,0
2019-02-14T21:11:10.452Z,0
2019-02-14T21:12:38.494Z,0
2019-02-14T21:15:34.763Z,0
2019-02-14T21:18:32.990Z,0
2019-02-14T21:21:35.184Z,0
2019-02-14T21:24:38.822Z,0
2019-02-14T21:27:39.856Z,0
2019-02-14T21:30:39.033Z,0
2019-02-14T21:33:36.812Z,0
2019-02-14T21:36:34.941Z,0
2019-02-14T21:39:33.572Z,0
2019-02-14T21:43:19.388Z,0
2019-02-14T21:46:00.265Z,0
2019-02-14T21:49:07.846Z,0
2019-02-14T21:51:49.755Z,0
2019-02-14T21:55:06.136Z,0
2019-02-14T21:58:11.579Z,0
2019-02-14T22:02:18.297Z,0
2019-02-14T22:04:09.143Z,0
2019-02-14T22:07:11.095Z,0
2019-02-14T22:09:43.482Z,0
2019-02-14T22:12:44.647Z,0
2019-02-14T22:15:35.239Z,0
2019-02-14T22:18:34.078Z,0
2019-02-14T22:21:34.070Z,0
2019-02-14T22:24:34.899Z,0
2019-02-14T22:27:35.382Z,0
2019-02-14T22:30:35.302Z,0
2019-02-14T22:33:34.116Z,0
2019-02-14T22:36:35.465Z,0
2019-02-14T22:39:34.484Z,0
2019-02-14T22:42:34.838Z,0
2019-02-14T22:45:34.042Z,0
2019-02-14T22:48:35.832Z,0
2019-02-14T22:51:54.441Z,0
2019-02-14T22:55:21.320Z,0
2019-02-14T22:59:28.964Z,0
2019-02-14T23:07:36.217Z,0
2019-02-14T23:07:57.933Z,0
2019-02-14T23:08:56.610Z,0
2019-02-14T23:09:43.306Z,0
2019-02-14T23:12:42.204Z,0
2019-02-14T23:15:54.649Z,0
2019-02-14T23:18:33.654Z,0
2019-02-14T23:21:36.263Z,0
2019-02-14T23:24:34.519Z,0
2019-02-14T23:27:35.348Z,0
2019-02-14T23:30:36.145Z,0
2019-02-14T23:33:36.205Z,0
2019-02-14T23:36:36.074Z,0
2019-02-14T23:39:36.294Z,0
2019-02-14T23:42:34.794Z,0
2019-02-14T23:45:34.310Z,0
2019-02-14T23:48:36.015Z,0
2019-02-14T23:51:35.815Z,0
2019-02-14T23:54:36.771Z,0
2019-02-14T23:57:34.449Z,0
